Terminal Aerodrome Forecast
Issued by NWS

Home | Current Version | Previous Version | Text Only | Print | Product List | Glossary On
Versions: 1 2 3 4 5 6 7 8 9 10 11 12 13 14 15 16 17 18
000
FTUS43 KLSX 291100
TAFCPS
TAF
KCPS 291123Z 2912/3012 16005KT P6SM SCT040 BKN080
     FM291700 20009KT P6SM VCTS SCT040CB BKN100
     FM300400 18007KT 3SM TSRA SCT015 BKN025CB
     FM301100 20008KT P6SM VCSH SCT015 BKN025=

USA.gov is the U.S. government's official web portal to all federal, state and local government web resources and services.